Time;durP1;ratioP1;P1;durP2;ratioP2;P2;SDS_P1;SDS_P2;PMS_P1;PMS_P2;Temp;Humidity;BMP_temperature;BMP_pressure;BME280_temperature;BME280_humidity;BME280_pressure;Samples;Min_cycle;Max_cycle;Signal;HPM_P1;HPM_P2
2021/12/02 00:00:48;;;;;;;6.57;1.90;;;;;;;3.82;100.00;99962.16;5023051;28;20963;-74
2021/12/02 00:03:17;;;;;;;9.60;1.58;;;;;;;3.93;100.00;99970.75;5024752;28;20500;-75
2021/12/02 00:05:45;;;;;;;8.75;1.77;;;;;;;4.18;100.00;99978.19;5023253;28;20067;-75
2021/12/02 00:08:14;;;;;;;5.68;1.60;;;;;;;4.23;100.00;99978.09;5022511;28;20045;-75
2021/12/02 00:10:42;;;;;;;6.72;1.90;;;;;;;4.36;100.00;99990.16;5026638;28;20123;-76
2021/12/02 00:13:11;;;;;;;7.45;1.75;;;;;;;4.30;100.00;99993.78;5021612;28;20049;-75
2021/12/02 00:15:46;;;;;;;7.38;2.08;;;;;;;4.18;100.00;99985.25;5026008;28;20432;-76
2021/12/02 00:21:19;;;;;;;7.30;1.63;;;;;;;4.07;100.00;99988.06;5025217;28;20072;-75
2021/12/02 00:23:53;;;;;;;4.43;1.48;;;;;;;3.98;100.00;99994.41;5020355;28;20056;-75
2021/12/02 00:26:25;;;;;;;10.50;1.23;;;;;;;4.01;99.10;99991.69;5027112;28;20136;-75
2021/12/02 00:29:04;;;;;;;5.38;1.23;;;;;;;3.91;99.60;99984.84;5018899;28;20136;-71
2021/12/02 00:31:36;;;;;;;5.65;1.40;;;;;;;3.82;100.00;99985.03;5030503;28;20060;-75
2021/12/02 00:34:06;;;;;;;2.70;1.27;;;;;;;3.85;99.18;99977.94;5030262;28;20053;-75
2021/12/02 00:36:37;;;;;;;4.65;1.38;;;;;;;3.81;100.00;99986.78;5026933;28;20061;-75
2021/12/02 00:39:09;;;;;;;4.40;1.40;;;;;;;3.73;100.00;99988.72;5029471;28;20139;-75
2021/12/02 00:41:38;;;;;;;5.88;1.67;;;;;;;3.72;100.00;99986.97;5026503;28;20482;-75
2021/12/02 00:44:06;;;;;;;4.15;1.17;;;;;;;3.77;99.48;99984.25;5031563;28;20056;-74
2021/12/02 00:46:36;;;;;;;8.55;1.73;;;;;;;3.77;99.94;99993.03;5024373;28;20443;-75
2021/12/02 00:49:10;;;;;;;9.43;1.63;;;;;;;3.80;100.00;99978.88;5029674;28;20049;-75
2021/12/02 00:51:40;;;;;;;8.73;1.73;;;;;;;3.77;100.00;99985.09;5029346;28;20080;-75
2021/12/02 00:54:10;;;;;;;6.07;1.33;;;;;;;3.81;100.00;99983.28;5026327;28;20068;-75
2021/12/02 00:56:39;;;;;;;4.93;1.52;;;;;;;3.80;100.00;99985.06;5027681;28;20581;-75
2021/12/02 00:59:09;;;;;;;6.95;1.75;;;;;;;3.82;100.00;99985.03;5026449;28;20545;-75
2021/12/02 01:01:39;;;;;;;8.77;1.83;;;;;;;4.00;100.00;99982.06;5024739;28;20121;-75
2021/12/02 01:04:10;;;;;;;7.20;2.40;;;;;;;4.00;100.00;99991.72;5032083;28;20107;-75
2021/12/02 01:07:13;;;;;;;8.00;1.63;;;;;;;4.01;100.00;99994.34;5026063;28;20049;-75
2021/12/02 01:09:55;;;;;;;10.15;1.73;;;;;;;4.23;100.00;100004.50;5027078;28;20321;-71
2021/12/02 01:12:31;;;;;;;3.25;1.30;;;;;;;4.28;97.54;100003.50;5025915;28;20128;-71
2021/12/02 01:15:05;;;;;;;6.38;1.63;;;;;;;4.24;97.20;100012.41;5027971;28;20144;-71
2021/12/02 01:17:42;;;;;;;8.00;1.33;;;;;;;4.13;97.35;100001.16;5027319;28;20041;-71
2021/12/02 01:20:22;;;;;;;5.90;1.83;;;;;;;4.05;98.57;99998.69;5024934;28;20914;-71
2021/12/02 01:23:04;;;;;;;7.68;1.77;;;;;;;3.98;99.60;99996.16;5025239;28;20067;-71
2021/12/02 01:25:43;;;;;;;9.15;1.65;;;;;;;4.06;99.90;100008.31;5057485;28;20057;-71
2021/12/02 01:28:36;;;;;;;6.88;1.77;;;;;;;3.97;100.00;100003.22;5026160;28;20051;-71
2021/12/02 01:31:10;;;;;;;9.25;1.92;;;;;;;3.91;100.00;100001.56;5024897;28;20088;-71
2021/12/02 01:33:48;;;;;;;11.65;1.83;;;;;;;3.80;100.00;100000.91;5028864;28;20497;-71
2021/12/02 01:36:34;;;;;;;9.25;1.80;;;;;;;3.68;100.00;100001.97;5027752;28;20053;-71
2021/12/02 01:39:12;;;;;;;6.78;1.52;;;;;;;3.60;100.00;100008.28;5029932;28;20176;-71
2021/12/02 01:41:54;;;;;;;6.03;1.83;;;;;;;3.55;100.00;100001.28;5021837;28;20093;-71
2021/12/02 01:44:28;;;;;;;7.00;1.55;;;;;;;3.57;99.35;100006.56;5016970;28;20519;-71
2021/12/02 01:47:06;;;;;;;7.25;1.40;;;;;;;3.70;96.39;100000.19;5024400;28;20076;-71
2021/12/02 01:49:47;;;;;;;5.55;1.42;;;;;;;3.73;95.22;100000.13;5031094;28;20060;-72
2021/12/02 01:52:36;;;;;;;10.52;1.60;;;;;;;3.77;95.38;100000.09;5023919;28;20044;-70
2021/12/02 01:55:14;;;;;;;4.10;1.30;;;;;;;3.87;94.45;100001.66;5028666;28;20316;-71
2021/12/02 01:57:59;;;;;;;7.88;1.52;;;;;;;3.84;95.03;99989.38;5023532;28;20530;-71
2021/12/02 02:00:41;;;;;;;5.60;1.40;;;;;;;3.83;95.94;99989.41;5038627;28;20057;-71
2021/12/02 02:03:14;;;;;;;8.95;1.60;;;;;;;4.03;94.34;99994.31;5024979;28;20063;-71
2021/12/02 02:05:58;;;;;;;7.47;1.50;;;;;;;4.09;95.75;99999.50;5029806;28;20425;-71
2021/12/02 02:08:31;;;;;;;7.65;1.48;;;;;;;4.07;96.56;99996.88;5024273;28;20495;-71
2021/12/02 02:11:24;;;;;;;4.25;1.55;;;;;;;4.25;96.17;100005.34;5016115;28;20045;-70
2021/12/02 02:13:58;;;;;;;5.47;1.52;;;;;;;4.42;93.98;100023.50;5026217;28;20152;-70
2021/12/02 02:16:34;;;;;;;7.60;2.10;;;;;;;4.31;94.60;100036.94;5025897;28;20061;-70
2021/12/02 02:19:11;;;;;;;3.05;1.25;;;;;;;4.15;96.62;100035.47;5028625;28;20045;-70
2021/12/02 02:22:03;;;;;;;6.43;1.20;;;;;;;3.95;96.90;100036.72;5025661;28;20068;-71
2021/12/02 02:24:38;;;;;;;6.85;1.27;;;;;;;3.80;96.60;100029.03;5033916;28;20049;-70
2021/12/02 02:27:30;;;;;;;2.20;1.00;;;;;;;3.78;94.08;100036.09;5019919;28;20052;-70
2021/12/02 02:30:08;;;;;;;0.77;0.63;;;;;;;3.77;92.39;100029.09;5023607;28;20490;-71
2021/12/02 02:32:49;;;;;;;4.47;1.05;;;;;;;3.70;92.66;100036.25;5022651;28;20510;-71
2021/12/02 02:35:21;;;;;;;4.77;1.20;;;;;;;3.66;92.38;100024.00;5028155;28;20048;-75
2021/12/02 02:37:51;;;;;;;2.30;0.77;;;;;;;3.57;93.34;100019.75;5024368;28;20119;-75
2021/12/02 02:40:19;;;;;;;3.25;1.02;;;;;;;3.57;93.41;100022.38;5024108;28;20091;-75
2021/12/02 02:42:49;;;;;;;2.95;1.23;;;;;;;3.62;93.53;100017.03;5029482;28;20106;-76
2021/12/02 02:45:17;;;;;;;10.57;2.08;;;;;;;3.60;93.90;100021.47;5023009;28;20065;-75
2021/12/02 02:47:46;;;;;;;5.18;1.10;;;;;;;3.62;94.18;100031.09;5025581;28;20558;-74
2021/12/02 02:50:17;;;;;;;4.63;0.95;;;;;;;3.57;94.78;100035.56;5023455;28;20051;-72
2021/12/02 02:53:05;;;;;;;5.95;1.40;;;;;;;3.63;95.03;100034.63;5031181;28;20546;-70
2021/12/02 02:55:59;;;;;;;2.45;1.45;;;;;;;3.63;94.05;100039.91;5024470;28;20049;-71
2021/12/02 02:58:45;;;;;;;4.22;1.40;;;;;;;3.61;96.00;100041.66;5024349;28;20072;-70
2021/12/02 03:04:25;;;;;;;1.17;0.88;;;;;;;3.35;99.75;100040.31;5024809;28;20108;-71
2021/12/02 03:07:03;;;;;;;3.45;0.85;;;;;;;3.29;99.75;100037.78;5021573;28;20424;-70
2021/12/02 03:13:12;;;;;;;3.90;1.00;;;;;;;3.20;100.00;100043.19;5025963;28;20263;-71
2021/12/02 03:18:46;;;;;;;4.80;1.45;;;;;;;3.25;100.00;100044.88;5027674;28;20079;-74
2021/12/02 03:21:29;;;;;;;2.17;0.95;;;;;;;3.31;100.00;100051.81;5019701;28;20134;-70
2021/12/02 03:24:23;;;;;;;5.53;1.20;;;;;;;3.42;99.88;100064.81;5026422;28;20045;-70
2021/12/02 03:26:55;;;;;;;3.85;0.88;;;;;;;3.14;100.00;100047.66;5023941;28;20139;-75
2021/12/02 03:29:22;;;;;;;2.13;0.85;;;;;;;3.04;100.00;100053.06;5023353;28;20128;-75
2021/12/02 03:31:51;;;;;;;5.75;1.17;;;;;;;2.96;100.00;100035.59;5025105;28;20172;-74
2021/12/02 03:34:20;;;;;;;2.10;0.65;;;;;;;2.86;100.00;100025.19;5029546;28;20052;-74
2021/12/02 03:36:51;;;;;;;7.03;1.30;;;;;;;2.80;100.00;100026.16;5022987;28;20140;-74
2021/12/02 03:39:19;;;;;;;3.25;1.20;;;;;;;2.75;100.00;100052.56;5028391;28;20567;-73
2021/12/02 03:41:49;;;;;;;3.03;1.13;;;;;;;2.67;100.00;100050.91;5019938;28;20060;-74
2021/12/02 03:44:18;;;;;;;9.10;1.45;;;;;;;2.66;100.00;100052.69;5029523;28;20064;-73
2021/12/02 03:46:46;;;;;;;4.80;1.08;;;;;;;2.68;100.00;100036.84;5027001;28;20309;-73
2021/12/02 03:49:14;;;;;;;8.00;1.60;;;;;;;2.68;100.00;100036.84;5023884;28;20064;-73
2021/12/02 03:51:42;;;;;;;5.05;1.50;;;;;;;2.66;100.00;100044.78;5025452;28;20322;-74
2021/12/02 03:54:10;;;;;;;6.45;1.48;;;;;;;2.68;100.00;100053.53;5025499;28;20082;-73
2021/12/02 03:56:38;;;;;;;9.73;1.88;;;;;;;2.69;100.00;100047.38;5024718;28;20063;-73
2021/12/02 03:59:06;;;;;;;2.60;0.85;;;;;;;2.78;100.00;100044.63;5023692;28;20147;-73
2021/12/02 04:01:35;;;;;;;5.35;1.45;;;;;;;2.80;100.00;100045.47;5027451;28;20052;-74
2021/12/02 04:04:04;;;;;;;3.30;1.38;;;;;;;2.88;100.00;100045.38;5020015;28;20037;-74
2021/12/02 04:06:32;;;;;;;1.88;1.00;;;;;;;2.91;100.00;100042.72;5029449;28;20053;-74
2021/12/02 04:09:04;;;;;;;6.15;1.40;;;;;;;2.98;100.00;100040.88;5027306;28;20397;-75
2021/12/02 04:11:35;;;;;;;8.07;1.67;;;;;;;2.98;100.00;100041.72;5032774;28;20052;-75
2021/12/02 04:14:19;;;;;;;4.88;1.35;;;;;;;3.03;100.00;100044.31;5025112;28;20134;-75
2021/12/02 04:16:58;;;;;;;;;;;;;;;3.10;100.00;100055.59;5029046;28;20049;-75
2021/12/02 04:19:26;;;;;;;8.75;1.50;;;;;;;3.34;100.00;100057.03;5025253;28;19924;-75
2021/12/02 04:21:57;;;;;;;7.40;1.20;;;;;;;3.14;100.00;100066.09;5028059;28;20678;-74
2021/12/02 04:24:25;;;;;;;5.35;1.30;;;;;;;2.88;100.00;100077.00;5024493;28;20064;-75
2021/12/02 04:26:54;;;;;;;3.05;1.20;;;;;;;2.57;100.00;100081.75;5028582;28;20132;-75
2021/12/02 04:29:24;;;;;;;1.08;0.60;;;;;;;2.43;100.00;100063.47;5028229;28;20056;-75
2021/12/02 04:31:55;;;;;;;0.57;0.57;;;;;;;2.35;100.00;100063.56;5029590;28;20148;-74
2021/12/02 04:34:22;;;;;;;2.78;0.80;;;;;;;2.35;100.00;100049.50;5021063;28;20049;-75
2021/12/02 04:36:51;;;;;;;2.00;0.70;;;;;;;2.39;100.00;100045.97;5027982;28;20233;-75
2021/12/02 04:39:19;;;;;;;1.00;0.63;;;;;;;2.40;100.00;100052.97;5023907;28;20045;-74
2021/12/02 04:41:46;;;;;;;4.05;1.05;;;;;;;2.34;100.00;100051.28;5031410;28;20061;-77
2021/12/02 04:44:18;;;;;;;2.88;0.77;;;;;;;2.27;100.00;100051.38;5028831;28;20081;-77
2021/12/02 04:46:47;;;;;;;1.58;0.77;;;;;;;2.19;100.00;100046.19;5032041;28;20056;-75
2021/12/02 04:49:16;;;;;;;3.00;1.02;;;;;;;2.05;100.00;100047.19;5028230;28;20056;-75
2021/12/02 04:51:44;;;;;;;1.10;0.85;;;;;;;1.99;100.00;100044.63;5026192;28;20060;-75
2021/12/02 04:54:12;;;;;;;2.47;0.88;;;;;;;1.98;100.00;100047.28;5022447;28;20348;-75
2021/12/02 04:56:40;;;;;;;0.57;0.57;;;;;;;2.00;100.00;100042.88;5027345;28;20049;-75
2021/12/02 04:59:08;;;;;;;1.58;0.95;;;;;;;1.96;100.00;100049.03;5024992;28;20049;-75
2021/12/02 05:01:36;;;;;;;3.55;1.00;;;;;;;1.94;100.00;100059.59;5029300;28;20103;-75
2021/12/02 05:04:05;;;;;;;1.38;1.05;;;;;;;1.95;100.00;100049.94;5025519;28;20049;-75
2021/12/02 05:06:34;;;;;;;1.33;1.00;;;;;;;1.93;100.00;100044.69;5028073;28;20061;-75
2021/12/02 05:09:03;;;;;;;5.70;1.30;;;;;;;1.99;100.00;100049.00;5024439;28;20049;-76
2021/12/02 05:11:31;;;;;;;3.83;1.30;;;;;;;1.99;100.00;100051.63;5029953;28;20143;-77
2021/12/02 05:14:00;;;;;;;4.50;2.03;;;;;;;2.01;100.00;100049.84;5024782;28;20053;-76
2021/12/02 05:16:28;;;;;;;5.70;1.58;;;;;;;2.09;100.00;100057.69;5027594;28;20635;-76
2021/12/02 05:18:56;;;;;;;4.75;1.52;;;;;;;2.09;100.00;100055.94;5022729;28;20057;-77
2021/12/02 05:21:24;;;;;;;6.68;1.30;;;;;;;2.16;100.00;100062.00;5030447;28;20057;-77
2021/12/02 05:23:54;;;;;;;4.38;1.48;;;;;;;2.47;100.00;100059.03;5027665;28;20079;-77
2021/12/02 05:26:23;;;;;;;3.90;1.42;;;;;;;2.58;100.00;100058.03;5024397;28;20131;-76
2021/12/02 05:28:53;;;;;;;5.22;1.73;;;;;;;2.56;100.00;100051.06;5029087;28;20119;-76
2021/12/02 05:31:22;;;;;;;4.57;1.63;;;;;;;2.83;100.00;100065.66;5030471;28;20040;-75
2021/12/02 05:33:51;;;;;;;9.10;1.85;;;;;;;3.02;98.85;100062.78;5029301;28;20506;-76
2021/12/02 05:36:19;;;;;;;5.72;1.40;;;;;;;3.15;97.73;100069.59;5024755;28;20762;-76
2021/12/02 05:38:47;;;;;;;5.80;1.80;;;;;;;3.26;96.54;100057.16;5026712;28;20052;-74
2021/12/02 05:41:17;;;;;;;5.68;1.63;;;;;;;3.40;94.60;100054.28;5026095;28;20144;-74
2021/12/02 05:43:45;;;;;;;10.68;2.15;;;;;;;3.39;93.81;100055.22;5023163;28;20136;-73
2021/12/02 05:46:13;;;;;;;9.38;2.20;;;;;;;3.47;91.94;100076.19;5032263;28;20168;-73
2021/12/02 05:48:41;;;;;;;7.78;2.00;;;;;;;3.31;93.38;100076.41;5029273;28;20045;-75
2021/12/02 05:51:09;;;;;;;4.40;1.05;;;;;;;3.35;90.36;100088.66;5026765;28;20057;-73
2021/12/02 05:53:37;;;;;;;1.95;0.80;;;;;;;3.17;89.23;100084.50;5026577;28;20518;-75
2021/12/02 05:56:05;;;;;;;5.38;1.08;;;;;;;3.09;90.46;100072.34;5025780;28;20097;-75
2021/12/02 05:58:35;;;;;;;3.75;1.00;;;;;;;3.25;88.88;100076.50;5024907;28;20103;-75
2021/12/02 06:01:04;;;;;;;2.63;1.45;;;;;;;3.18;91.80;100093.28;5025390;28;20049;-71
2021/12/02 06:03:36;;;;;;;6.13;1.67;;;;;;;3.12;95.71;100090.75;5029224;28;20052;-71
2021/12/02 06:06:05;;;;;;;8.80;1.80;;;;;;;3.10;98.29;100098.69;5023203;28;20045;-69
2021/12/02 06:08:33;;;;;;;7.90;2.00;;;;;;;3.15;98.46;100096.84;5029989;28;20056;-69
2021/12/02 06:11:01;;;;;;;7.05;1.60;;;;;;;3.05;99.97;100108.41;5030763;28;20576;-69
2021/12/02 06:13:31;;;;;;;6.25;1.88;;;;;;;2.99;100.00;100114.63;5023465;28;20152;-69
2021/12/02 06:16:04;;;;;;;9.75;1.85;;;;;;;2.95;100.00;100115.56;5025318;28;20099;-69
2021/12/02 06:18:32;;;;;;;5.50;1.77;;;;;;;2.93;100.00;100127.03;5023018;28;20049;-68
2021/12/02 06:21:00;;;;;;;10.55;2.40;;;;;;;2.88;100.00;100129.72;5028765;28;20286;-69
2021/12/02 06:23:29;;;;;;;6.75;1.25;;;;;;;2.82;97.03;100139.44;5025708;28;20647;-70
2021/12/02 06:25:58;;;;;;;5.00;1.23;;;;;;;2.68;97.67;100139.59;5028966;28;20056;-69
2021/12/02 06:28:26;;;;;;;3.40;1.23;;;;;;;2.52;97.71;100123.06;5023466;28;20045;-71
2021/12/02 06:30:54;;;;;;;3.42;1.08;;;;;;;2.40;96.71;100121.44;5030019;28;20243;-71
2021/12/02 06:33:26;;;;;;;3.28;1.08;;;;;;;2.26;97.75;100105.78;5020432;28;20049;-71
2021/12/02 06:35:54;;;;;;;1.55;1.10;;;;;;;2.19;97.61;100112.00;5028095;28;20050;-71
2021/12/02 06:38:22;;;;;;;3.25;1.33;;;;;;;2.17;98.14;100116.41;5022598;28;20606;-70
2021/12/02 06:40:51;;;;;;;3.40;1.60;;;;;;;2.13;99.17;100114.66;5027475;28;20478;-70
2021/12/02 06:43:20;;;;;;;3.58;1.17;;;;;;;2.10;97.59;100101.56;5025285;28;20095;-70
2021/12/02 06:45:49;;;;;;;3.45;1.08;;;;;;;2.14;96.43;100112.03;5031554;28;20148;-70
2021/12/02 06:48:18;;;;;;;3.65;1.30;;;;;;;2.14;96.36;100109.41;5024638;28;20060;-70
2021/12/02 06:50:47;;;;;;;3.70;1.52;;;;;;;2.11;97.65;100109.44;5021597;28;20049;-70
2021/12/02 06:53:17;;;;;;;4.10;1.20;;;;;;;2.10;99.01;100123.47;5025052;28;20497;-72
2021/12/02 06:55:47;;;;;;;6.90;1.33;;;;;;;2.16;99.67;100118.19;5026105;28;20045;-71
2021/12/02 06:58:15;;;;;;;5.35;1.60;;;;;;;2.20;99.20;100116.38;5025071;28;20061;-74
2021/12/02 07:00:42;;;;;;;3.38;1.58;;;;;;;2.23;99.68;100117.22;5024797;28;20185;-74
2021/12/02 07:03:10;;;;;;;6.10;2.50;;;;;;;2.21;99.97;100120.75;5027429;28;20049;-74
2021/12/02 07:05:39;;;;;;;3.85;1.85;;;;;;;2.24;99.44;100121.59;5022360;28;20053;-74
2021/12/02 07:08:08;;;;;;;6.85;2.15;;;;;;;2.31;99.71;100132.94;5024535;28;20417;-74
2021/12/02 07:10:40;;;;;;;;;;;;;;;2.36;100.00;100128.50;5022828;28;20052;-74
2021/12/02 07:13:11;;;;;;;9.30;2.28;;;;;;;2.50;98.30;100127.47;5028967;28;19972;-72
2021/12/02 07:15:44;;;;;;;2.70;1.60;;;;;;;2.56;99.11;100130.06;5023205;28;20750;-69
2021/12/02 07:18:16;;;;;;;3.00;1.42;;;;;;;2.52;99.20;100142.41;5026412;28;20172;-70
2021/12/02 07:20:48;;;;;;;7.55;1.55;;;;;;;2.51;99.12;100148.53;5024326;28;20045;-71
2021/12/02 07:23:22;;;;;;;7.78;1.80;;;;;;;2.55;97.86;100152.00;5028546;28;20138;-70
2021/12/02 07:25:52;;;;;;;5.35;1.73;;;;;;;2.45;99.58;100145.09;5020981;28;20185;-70
2021/12/02 07:28:21;;;;;;;7.68;1.95;;;;;;;2.39;100.00;100146.91;5025833;28;20250;-70
2021/12/02 07:30:57;;;;;;;7.20;1.73;;;;;;;2.34;99.76;100150.47;5022345;28;20053;-70
2021/12/02 07:33:35;;;;;;;3.28;1.77;;;;;;;2.27;100.00;100147.03;5025452;28;20057;-70
2021/12/02 07:36:03;;;;;;;7.13;1.58;;;;;;;2.29;100.00;100149.66;5022621;28;20192;-70
2021/12/02 07:38:33;;;;;;;5.60;1.38;;;;;;;2.35;100.00;100161.00;5023837;28;20151;-70
2021/12/02 07:41:05;;;;;;;5.00;1.77;;;;;;;2.53;98.69;100154.66;5019749;28;20224;-69
2021/12/02 07:46:51;;;;;;;10.05;1.60;;;;;;;2.69;100.00;100179.09;5026280;28;20551;-70
2021/12/02 07:49:31;;;;;;;6.43;1.73;;;;;;;2.66;100.00;100175.63;5021517;28;20575;-70
2021/12/02 07:52:21;;;;;;;3.75;1.40;;;;;;;2.56;100.00;100178.34;5026491;28;20567;-70
2021/12/02 07:58:27;;;;;;;6.70;1.33;;;;;;;2.51;100.00;100187.19;5023187;28;20474;-69
2021/12/02 08:01:05;;;;;;;3.30;0.95;;;;;;;2.54;100.00;100190.66;5027147;28;20073;-69
2021/12/02 08:03:34;;;;;;;4.93;1.15;;;;;;;2.48;100.00;100174.03;5023893;28;20049;-68
2021/12/02 08:06:11;;;;;;;1.45;1.10;;;;;;;2.35;98.28;100182.06;5022903;28;20448;-69
2021/12/02 08:08:40;;;;;;;1.33;1.17;;;;;;;2.27;99.34;100206.72;5025094;28;20060;-69
2021/12/02 08:11:13;;;;;;;1.85;0.88;;;;;;;2.14;100.00;100219.09;5019971;28;20057;-72
2021/12/02 08:13:41;;;;;;;1.67;0.88;;;;;;;2.02;100.00;100234.06;5024625;28;20206;-72
2021/12/02 08:16:10;;;;;;;3.30;1.15;;;;;;;1.98;100.00;100234.13;5021511;28;20053;-70
2021/12/02 08:18:41;;;;;;;1.70;1.10;;;;;;;1.92;100.00;100232.38;5024270;28;20127;-70
2021/12/02 08:21:12;;;;;;;1.73;1.13;;;;;;;1.85;100.00;100225.41;5017834;28;20451;-71
2021/12/02 08:23:45;;;;;;;7.15;1.15;;;;;;;1.80;100.00;100233.31;5025666;28;20064;-69
2021/12/02 08:26:16;;;;;;;0.80;0.80;;;;;;;1.75;100.00;100248.25;5019104;28;20578;-70
2021/12/02 08:28:46;;;;;;;1.85;1.10;;;;;;;1.71;100.00;100246.53;5026601;28;20093;-73
2021/12/02 08:31:15;;;;;;;2.78;0.88;;;;;;;1.66;100.00;100251.81;5020493;28;20044;-72
2021/12/02 08:33:43;;;;;;;4.07;1.10;;;;;;;1.62;100.00;100259.75;5028878;28;20202;-73
2021/12/02 08:36:11;;;;;;;9.82;1.83;;;;;;;1.57;100.00;100257.13;5021907;28;20045;-72
2021/12/02 08:38:40;;;;;;;3.80;1.90;;;;;;;1.54;100.00;100259.78;5024084;28;20096;-73
2021/12/02 08:41:12;;;;;;;4.78;1.70;;;;;;;1.56;100.00;100262.41;5026725;28;20524;-73
2021/12/02 08:43:42;;;;;;;3.63;1.50;;;;;;;1.53;100.00;100265.91;5023735;28;20053;-72
2021/12/02 08:46:10;;;;;;;4.18;1.60;;;;;;;1.51;100.00;100274.69;5028066;28;20069;-72
2021/12/02 08:48:38;;;;;;;5.20;1.90;;;;;;;1.55;100.00;100286.94;5019944;28;20341;-73
2021/12/02 08:51:06;;;;;;;4.55;1.70;;;;;;;1.61;100.00;100284.28;5027111;28;20046;-72
2021/12/02 08:53:34;;;;;;;6.47;1.27;;;;;;;1.74;100.00;100279.84;5025539;28;20045;-73
2021/12/02 08:56:02;;;;;;;5.65;1.40;;;;;;;1.86;100.00;100278.03;5023138;28;20107;-75
2021/12/02 08:58:30;;;;;;;2.72;1.10;;;;;;;2.02;100.00;100283.19;5028587;28;20135;-72
2021/12/02 09:00:59;;;;;;;8.77;1.50;;;;;;;2.15;100.00;100286.66;5028076;28;20064;-72
2021/12/02 09:03:27;;;;;;;3.78;1.20;;;;;;;2.30;100.00;100288.28;5025844;28;20041;-72
2021/12/02 09:05:55;;;;;;;2.65;1.30;;;;;;;2.37;100.00;100288.25;5023224;28;20127;-75
2021/12/02 09:08:24;;;;;;;2.83;1.08;;;;;;;2.51;100.00;100290.78;5028280;28;20110;-74
2021/12/02 09:10:52;;;;;;;5.05;1.20;;;;;;;2.56;100.00;100291.59;5027805;28;20045;-74
2021/12/02 09:13:22;;;;;;;5.38;1.60;;;;;;;2.56;100.00;100285.47;5023903;28;20052;-71
2021/12/02 09:15:51;;;;;;;2.80;1.30;;;;;;;2.60;100.00;100287.19;5027301;28;20171;-70
2021/12/02 09:18:21;;;;;;;2.95;1.00;;;;;;;2.64;100.00;100293.28;5023427;28;20049;-71
2021/12/02 09:20:51;;;;;;;2.67;1.63;;;;;;;2.66;100.00;100296.81;5028621;28;20049;-71
2021/12/02 09:23:19;;;;;;;3.08;1.20;;;;;;;2.73;100.00;100299.38;5021898;28;20288;-71
2021/12/02 09:25:46;;;;;;;4.80;1.30;;;;;;;2.83;100.00;100297.53;5028965;28;20357;-71
2021/12/02 09:28:15;;;;;;;4.30;1.40;;;;;;;2.90;100.00;100298.34;5027470;28;20236;-71
2021/12/02 09:30:46;;;;;;;1.13;0.98;;;;;;;3.00;100.00;100310.56;5024882;28;20045;-70
2021/12/02 09:33:14;;;;;;;3.42;1.17;;;;;;;3.06;100.00;100314.88;5027039;28;20145;-71
2021/12/02 09:35:44;;;;;;;2.45;0.82;;;;;;;3.10;100.00;100316.59;5024262;28;20230;-70
2021/12/02 09:38:12;;;;;;;1.80;0.90;;;;;;;3.14;100.00;100320.97;5030678;28;20335;-70
2021/12/02 09:40:49;;;;;;;4.85;1.40;;;;;;;3.16;100.00;100321.81;5024217;28;20168;-71
2021/12/02 09:43:17;;;;;;;14.38;1.92;;;;;;;3.26;99.96;100331.38;5029571;28;20439;-72
2021/12/02 09:45:45;;;;;;;4.32;2.20;;;;;;;3.35;100.00;100328.66;5021550;28;20055;-72
2021/12/02 09:48:15;;;;;;;1.45;0.93;;;;;;;3.34;100.00;100326.91;5028407;28;20115;-70
2021/12/02 09:50:55;;;;;;;2.17;1.05;;;;;;;3.31;96.97;100333.97;5023854;28;20053;-69
2021/12/02 09:53:35;;;;;;;3.90;0.75;;;;;;;3.32;98.47;100335.72;5026042;28;20049;-70
2021/12/02 09:56:24;;;;;;;2.33;0.95;;;;;;;3.34;100.00;100341.88;5019521;28;21584;-69
2021/12/02 09:59:03;;;;;;;2.40;0.95;;;;;;;3.34;99.41;100345.38;5026052;28;20044;-70
2021/12/02 10:01:40;;;;;;;3.35;1.20;;;;;;;3.34;99.74;100342.75;5019453;28;20632;-70
2021/12/02 10:04:13;;;;;;;4.43;1.30;;;;;;;3.38;98.65;100333.03;5027471;28;20210;-69
2021/12/02 10:06:47;;;;;;;3.90;1.17;;;;;;;3.52;99.07;100338.16;5024478;28;20479;-70
2021/12/02 10:09:22;;;;;;;4.15;1.35;;;;;;;3.71;100.00;100344.06;5026736;28;20121;-69
2021/12/02 10:11:56;;;;;;;3.60;1.63;;;;;;;3.92;99.14;100345.59;5027407;28;20171;-68
2021/12/02 10:14:32;;;;;;;3.78;1.45;;;;;;;4.10;98.92;100358.56;5023697;28;20080;-71
2021/12/02 10:17:07;;;;;;;2.88;1.40;;;;;;;4.03;97.58;100362.16;5021874;28;20046;-69
2021/12/02 10:19:35;;;;;;;4.15;1.50;;;;;;;3.92;99.13;100367.59;5028998;28;20137;-74
2021/12/02 10:22:08;;;;;;;6.72;2.00;;;;;;;3.72;97.64;100366.94;5029135;28;20045;-69
2021/12/02 10:24:42;;;;;;;6.30;1.73;;;;;;;3.62;100.00;100381.13;5027303;28;20053;-72
2021/12/02 10:27:11;;;;;;;2.97;1.63;;;;;;;3.61;100.00;100403.13;5022416;28;20227;-74
2021/12/02 10:29:47;;;;;;;;;;;;;;;3.51;100.00;100416.44;5026393;28;20064;-71
2021/12/02 10:32:19;;;;;;;2.53;1.33;;;;;;;3.16;100.00;100419.38;5022710;28;20127;-75
2021/12/02 10:34:54;;;;;;;7.10;1.80;;;;;;;2.87;100.00;100433.66;5028161;28;20481;-71
2021/12/02 10:37:27;;;;;;;4.75;1.67;;;;;;;2.72;100.00;100417.94;5023606;28;20045;-69
2021/12/02 10:39:58;;;;;;;5.85;1.70;;;;;;;2.63;100.00;100416.25;5026488;28;20566;-71
2021/12/02 10:42:31;;;;;;;6.03;1.98;;;;;;;2.41;100.00;100433.94;5021859;28;20157;-71
2021/12/02 10:45:03;;;;;;;4.82;1.60;;;;;;;2.50;100.00;100446.19;5025784;28;20099;-71
2021/12/02 10:47:32;;;;;;;4.63;1.80;;;;;;;2.41;100.00;100465.53;5021539;28;20049;-71
2021/12/02 10:50:07;;;;;;;6.78;2.25;;;;;;;2.39;100.00;100493.63;5028507;28;20115;-70
2021/12/02 10:52:37;;;;;;;5.72;1.63;;;;;;;1.95;100.00;100502.53;5024630;28;20211;-71
2021/12/02 10:55:09;;;;;;;4.82;1.40;;;;;;;1.61;100.00;100490.31;5026864;28;20107;-70
2021/12/02 10:57:40;;;;;;;2.35;1.33;;;;;;;1.41;100.00;100487.69;5023363;28;20081;-70
2021/12/02 11:00:11;;;;;;;1.00;1.00;;;;;;;1.38;100.00;100495.59;5024111;28;20092;-70
2021/12/02 11:02:45;;;;;;;3.20;1.02;;;;;;;1.37;100.00;100490.34;5022480;28;20049;-69
2021/12/02 11:05:20;;;;;;;2.53;1.17;;;;;;;1.34;100.00;100490.31;5026760;28;20053;-69
2021/12/02 11:07:56;;;;;;;1.73;1.10;;;;;;;1.37;100.00;100488.56;5023930;28;20052;-69
2021/12/02 11:10:26;;;;;;;2.65;1.13;;;;;;;1.38;100.00;100465.78;5024221;28;20061;-72
2021/12/02 11:12:56;;;;;;;2.47;1.20;;;;;;;1.38;100.00;100453.53;5021027;28;20111;-73
2021/12/02 11:15:25;;;;;;;3.67;1.67;;;;;;;1.47;100.00;100468.41;5025875;28;20119;-71
2021/12/02 11:17:57;;;;;;;3.20;1.50;;;;;;;1.41;100.00;100482.41;5021310;28;20045;-71
2021/12/02 11:20:29;;;;;;;3.00;1.50;;;;;;;1.46;100.00;100469.28;5026563;28;20055;-73
2021/12/02 11:23:01;;;;;;;3.22;1.60;;;;;;;1.52;100.00;100453.50;5023059;28;20052;-72
2021/12/02 11:25:30;;;;;;;8.97;3.20;;;;;;;1.57;100.00;100458.78;5021908;28;20142;-72
2021/12/02 11:28:03;;;;;;;2.25;1.50;;;;;;;1.56;100.00;100457.00;5025770;28;20107;-73
2021/12/02 11:30:32;;;;;;;6.32;2.20;;;;;;;1.59;100.00;100441.22;5025656;28;20057;-75
2021/12/02 11:33:10;;;;;;;3.38;1.80;;;;;;;1.67;100.00;100452.63;5022640;28;20049;-75
2021/12/02 11:35:40;;;;;;;4.50;1.73;;;;;;;1.71;100.00;100458.75;5027240;28;20155;-75
2021/12/02 11:38:16;;;;;;;7.10;1.65;;;;;;;1.67;100.00;100452.63;5024057;28;20291;-75
2021/12/02 11:40:46;;;;;;;4.05;1.98;;;;;;;1.69;100.00;100453.50;5026579;28;20111;-74
2021/12/02 11:43:17;;;;;;;3.47;1.98;;;;;;;1.70;100.00;100455.22;5022907;28;20172;-71
2021/12/02 11:45:48;;;;;;;4.03;1.80;;;;;;;1.73;100.00;100444.69;5027448;28;20156;-70
2021/12/02 11:48:19;;;;;;;3.78;1.48;;;;;;;1.72;100.00;100447.31;5021843;28;20056;-71
2021/12/02 11:50:55;;;;;;;3.30;1.55;;;;;;;1.72;100.00;100456.13;5025110;28;20136;-71
2021/12/02 11:53:25;;;;;;;6.05;1.52;;;;;;;1.73;100.00;100460.47;5023570;28;20168;-71
2021/12/02 11:55:56;;;;;;;6.28;1.63;;;;;;;1.70;100.00;100460.47;5022823;28;20056;-71
2021/12/02 11:58:25;;;;;;;4.15;1.38;;;;;;;1.70;100.00;100463.09;5024258;28;20045;-71
2021/12/02 12:00:54;;;;;;;4.93;1.80;;;;;;;1.74;100.00;100475.41;5025493;28;20083;-70
2021/12/02 12:03:27;;;;;;;1.40;1.25;;;;;;;1.79;100.00;100492.06;5025184;28;20049;-71
2021/12/02 12:05:59;;;;;;;5.03;1.80;;;;;;;1.83;100.00;100492.91;5019396;28;20059;-70
2021/12/02 12:08:32;;;;;;;7.35;2.40;;;;;;;1.92;100.00;100492.88;5024909;28;20099;-71
2021/12/02 12:11:20;;;;;;;3.13;1.80;;;;;;;2.23;100.00;100503.34;5021153;28;20076;-71